CES5105 ZSSS-ZBAA
Flight info
| Callsign | CES5105 |
|---|---|
| Flight time | N/A |
| Altitude | 32100 |
| Route | PIK71D PIKAS G330 PIMOL A593 DALIM W157 AVBOX AVBOX7X |
| Aircraft | B77W/H-SDE1E2E3FGHIJ2J3J4J5M1RWXY/LB1D1 |
Departure
| Time | 2026-04-28 04:00 |
|---|---|
| Airport | Shanghai Hongqiao International Airport (ZSSS) |
Arrival
| Time | N/A |
|---|---|
| Airport | Beijing Capital International Airport (ZBAA) |
| Time | Latitude | Longitude | Altitude | Speed | Heading |
|---|---|---|---|---|---|
| 2026-04-28 03:40 | 31.19963 | 121.32853 | 25 ft | 0 kts | 237° |
| 2026-04-28 03:50 | 31.19965 | 121.32858 | 25 ft | 3 kts | 237° |
| 2026-04-28 03:50 | 31.19971 | 121.32867 | 25 ft | 1 kts | 237° |
| 2026-04-28 03:51 | 31.19980 | 121.32881 | 25 ft | 2 kts | 220° |
| 2026-04-28 03:51 | 31.19992 | 121.32890 | 25 ft | 2 kts | 201° |
| 2026-04-28 03:51 | 31.20007 | 121.32895 | 25 ft | 2 kts | 185° |
| 2026-04-28 03:51 | 31.20022 | 121.32895 | 25 ft | 2 kts | 168° |
| 2026-04-28 03:52 | 31.20036 | 121.32890 | 25 ft | 2 kts | 151° |
| 2026-04-28 03:52 | 31.20049 | 121.32880 | 25 ft | 2 kts | 135° |
| 2026-04-28 03:52 | 31.20058 | 121.32866 | 25 ft | 2 kts | 118° |
| 2026-04-28 03:52 | 31.20063 | 121.32851 | 25 ft | 2 kts | 102° |
| 2026-04-28 03:53 | 31.20065 | 121.32835 | 25 ft | 0 kts | 87° |
| 2026-04-28 03:53 | 31.20065 | 121.32832 | 25 ft | 0 kts | 86° |
| 2026-04-28 03:55 | 31.20065 | 121.32834 | 25 ft | 0 kts | 86° |
| 2026-04-28 03:55 | 31.20066 | 121.32855 | 25 ft | 4 kts | 86° |
| 2026-04-28 03:55 | 31.20068 | 121.32906 | 25 ft | 7 kts | 95° |
| 2026-04-28 03:55 | 31.20024 | 121.32949 | 25 ft | 10 kts | 166° |
| 2026-04-28 03:56 | 31.19940 | 121.32958 | 25 ft | 13 kts | 179° |
| 2026-04-28 03:56 | 31.19834 | 121.32968 | 25 ft | 16 kts | 175° |
| 2026-04-28 03:56 | 31.19710 | 121.32974 | 25 ft | 19 kts | 177° |
| 2026-04-28 03:56 | 31.19565 | 121.32983 | 25 ft | 22 kts | 176° |
| 2026-04-28 03:57 | 31.19401 | 121.32993 | 25 ft | 21 kts | 178° |
| 2026-04-28 03:57 | 31.19239 | 121.33003 | 25 ft | 24 kts | 176° |
| 2026-04-28 03:57 | 31.19053 | 121.33011 | 25 ft | 28 kts | 178° |
| 2026-04-28 03:57 | 31.18849 | 121.33025 | 25 ft | 30 kts | 175° |
| 2026-04-28 03:58 | 31.18624 | 121.33034 | 25 ft | 33 kts | 179° |
| 2026-04-28 03:58 | 31.18451 | 121.33043 | 25 ft | 16 kts | 177° |
| 2026-04-28 03:58 | 31.18346 | 121.33065 | 25 ft | 5 kts | 127° |
| 2026-04-28 03:58 | 31.18338 | 121.33140 | 25 ft | 11 kts | 94° |
| 2026-04-28 03:59 | 31.18341 | 121.33255 | 25 ft | 16 kts | 85° |
| 2026-04-28 03:59 | 31.18429 | 121.33318 | 25 ft | 19 kts | 359° |
| 2026-04-28 03:59 | 31.18750 | 121.33296 | 25 ft | 84 kts | 358° |
| 2026-04-28 03:59 | 31.19601 | 121.33257 | 31 ft | 155 kts | 356° |
| 2026-04-28 04:00 | 31.20789 | 121.33128 | 489 ft | 182 kts | 355° |
| 2026-04-28 04:00 | 31.21979 | 121.33282 | 1632 ft | 169 kts | 19° |
| 2026-04-28 04:00 | 31.23139 | 121.33501 | 2361 ft | 179 kts | 3° |
| 2026-04-28 04:00 | 31.24424 | 121.33166 | 2874 ft | 204 kts | 338° |
| 2026-04-28 04:01 | 31.25626 | 121.32157 | 3470 ft | 225 kts | 326° |
| 2026-04-28 04:01 | 31.26884 | 121.30936 | 4094 ft | 242 kts | 325° |
| 2026-04-28 04:01 | 31.28216 | 121.29636 | 4722 ft | 258 kts | 323° |
| 2026-04-28 04:01 | 31.29631 | 121.28249 | 4999 ft | 270 kts | 323° |
| 2026-04-28 04:02 | 31.31083 | 121.26820 | 5008 ft | 270 kts | 323° |
| 2026-04-28 04:02 | 31.32527 | 121.25398 | 5009 ft | 271 kts | 323° |
| 2026-04-28 04:02 | 31.33970 | 121.23976 | 5007 ft | 270 kts | 323° |
| 2026-04-28 04:02 | 31.35423 | 121.22543 | 5020 ft | 271 kts | 323° |
| 2026-04-28 04:03 | 31.36872 | 121.21114 | 5020 ft | 270 kts | 323° |
| 2026-04-28 04:03 | 31.38317 | 121.19688 | 5016 ft | 270 kts | 323° |
| 2026-04-28 04:03 | 31.39766 | 121.18253 | 5012 ft | 270 kts | 322° |
| 2026-04-28 04:03 | 31.41118 | 121.16660 | 5181 ft | 287 kts | 316° |
| 2026-04-28 04:04 | 31.42453 | 121.14942 | 6390 ft | 281 kts | 315° |
| 2026-04-28 04:04 | 31.43757 | 121.13263 | 7455 ft | 280 kts | 314° |
| 2026-04-28 04:04 | 31.45179 | 121.11704 | 8284 ft | 285 kts | 328° |
| 2026-04-28 04:04 | 31.46939 | 121.10614 | 9114 ft | 291 kts | 335° |
| 2026-04-28 04:05 | 31.48804 | 121.09628 | 9866 ft | 299 kts | 334° |
| 2026-04-28 04:05 | 31.50756 | 121.08604 | 10546 ft | 309 kts | 333° |
| 2026-04-28 04:05 | 31.52770 | 121.07539 | 11040 ft | 326 kts | 333° |
| 2026-04-28 04:05 | 31.54900 | 121.06407 | 11630 ft | 341 kts | 333° |
| 2026-04-28 04:06 | 31.57115 | 121.05228 | 12271 ft | 354 kts | 332° |
| 2026-04-28 04:06 | 31.59397 | 121.04015 | 12989 ft | 366 kts | 331° |
| 2026-04-28 04:06 | 31.61748 | 121.02764 | 13714 ft | 377 kts | 330° |
| 2026-04-28 04:06 | 31.64142 | 121.01489 | 14568 ft | 385 kts | 330° |
| 2026-04-28 04:07 | 31.66584 | 121.00188 | 15598 ft | 388 kts | 330° |
| 2026-04-28 04:07 | 31.69041 | 120.98879 | 16623 ft | 391 kts | 330° |
| 2026-04-28 04:07 | 31.71544 | 120.97545 | 17574 ft | 394 kts | 329° |
| 2026-04-28 04:07 | 31.74028 | 120.96220 | 18472 ft | 398 kts | 329° |
| 2026-04-28 04:08 | 31.76554 | 120.94870 | 19339 ft | 403 kts | 329° |
| 2026-04-28 04:08 | 31.79140 | 120.93488 | 20243 ft | 406 kts | 329° |
| 2026-04-28 04:08 | 31.81718 | 120.92110 | 21151 ft | 409 kts | 329° |
| 2026-04-28 04:08 | 31.84292 | 120.90733 | 21983 ft | 412 kts | 328° |
| 2026-04-28 04:09 | 31.86903 | 120.89335 | 22693 ft | 418 kts | 328° |
| 2026-04-28 04:09 | 31.89561 | 120.87910 | 23463 ft | 423 kts | 328° |
| 2026-04-28 04:09 | 31.92261 | 120.86463 | 24280 ft | 426 kts | 328° |
| 2026-04-28 04:09 | 31.94930 | 120.85032 | 25094 ft | 429 kts | 328° |
| 2026-04-28 04:10 | 31.97662 | 120.83564 | 25842 ft | 434 kts | 328° |
| 2026-04-28 04:10 | 32.00433 | 120.82074 | 26569 ft | 439 kts | 328° |
| 2026-04-28 04:10 | 32.03208 | 120.80579 | 27189 ft | 446 kts | 328° |
| 2026-04-28 04:10 | 32.06089 | 120.79024 | 27923 ft | 450 kts | 327° |
| 2026-04-28 04:11 | 32.08776 | 120.77240 | 28554 ft | 448 kts | 319° |
| 2026-04-28 04:11 | 32.11241 | 120.74976 | 29087 ft | 448 kts | 311° |
| 2026-04-28 04:11 | 32.13362 | 120.72322 | 29737 ft | 446 kts | 303° |
| 2026-04-28 04:11 | 32.15108 | 120.69308 | 30768 ft | 435 kts | 295° |
| 2026-04-28 04:12 | 32.16405 | 120.66170 | 31762 ft | 425 kts | 288° |
| 2026-04-28 04:12 | 32.17336 | 120.62886 | 32160 ft | 422 kts | 282° |
| 2026-04-28 04:12 | 32.18165 | 120.56127 | 32189 ft | 413 kts | 274° |
| 2026-04-28 04:13 | 32.18698 | 120.49401 | 32189 ft | 411 kts | 274° |
| 2026-04-28 04:13 | 32.19237 | 120.42691 | 32191 ft | 411 kts | 274° |
| 2026-04-28 04:14 | 32.19780 | 120.36002 | 32186 ft | 410 kts | 274° |
| 2026-04-28 04:14 | 32.20322 | 120.29308 | 32197 ft | 411 kts | 273° |
| 2026-04-28 04:15 | 32.20860 | 120.22626 | 32197 ft | 410 kts | 274° |
| 2026-04-28 04:16 | 32.21682 | 120.12583 | 32199 ft | 409 kts | 274° |
| 2026-04-28 04:16 | 32.22224 | 120.05886 | 32197 ft | 409 kts | 274° |
| 2026-04-28 04:17 | 32.22758 | 119.99243 | 32196 ft | 408 kts | 273° |
| 2026-04-28 04:17 | 32.23293 | 119.92540 | 32193 ft | 408 kts | 274° |
| 2026-04-28 04:18 | 32.23847 | 119.85892 | 32183 ft | 408 kts | 276° |
| 2026-04-28 04:18 | 32.25419 | 119.79452 | 32194 ft | 414 kts | 290° |
| 2026-04-28 04:19 | 32.28476 | 119.73650 | 32187 ft | 422 kts | 304° |
| 2026-04-28 04:19 | 32.32896 | 119.68925 | 32193 ft | 436 kts | 317° |
| 2026-04-28 04:20 | 32.37836 | 119.64776 | 32194 ft | 438 kts | 317° |
| 2026-04-28 04:20 | 32.42829 | 119.60555 | 32193 ft | 437 kts | 317° |
| 2026-04-28 04:21 | 32.47755 | 119.56359 | 32194 ft | 436 kts | 317° |
| 2026-04-28 04:21 | 32.52665 | 119.52131 | 32194 ft | 437 kts | 317° |
| 2026-04-28 04:22 | 32.57567 | 119.47897 | 32188 ft | 437 kts | 316° |
| 2026-04-28 04:22 | 32.62520 | 119.43611 | 32194 ft | 439 kts | 317° |
| 2026-04-28 04:23 | 32.67414 | 119.39372 | 32188 ft | 438 kts | 317° |
| 2026-04-28 04:23 | 32.72356 | 119.35084 | 32187 ft | 436 kts | 317° |
| 2026-04-28 04:24 | 32.77258 | 119.30823 | 32209 ft | 437 kts | 316° |
| 2026-04-28 04:24 | 32.82147 | 119.26568 | 32199 ft | 434 kts | 316° |
| 2026-04-28 04:25 | 32.87041 | 119.22302 | 32201 ft | 434 kts | 316° |
| 2026-04-28 04:25 | 32.91928 | 119.18036 | 32200 ft | 435 kts | 316° |
| 2026-04-28 04:26 | 32.96793 | 119.13808 | 32206 ft | 435 kts | 317° |
| 2026-04-28 04:26 | 33.01716 | 119.09574 | 32197 ft | 437 kts | 317° |
| 2026-04-28 04:27 | 33.06640 | 119.05333 | 32200 ft | 436 kts | 317° |
| 2026-04-28 04:27 | 33.11553 | 119.01093 | 32194 ft | 434 kts | 316° |
| 2026-04-28 04:28 | 33.16436 | 118.96872 | 32203 ft | 433 kts | 316° |
| 2026-04-28 04:28 | 33.21350 | 118.92612 | 32203 ft | 434 kts | 316° |
| 2026-04-28 04:29 | 33.26224 | 118.88357 | 32202 ft | 433 kts | 316° |
| 2026-04-28 04:29 | 33.31067 | 118.84127 | 32199 ft | 432 kts | 316° |
| 2026-04-28 04:30 | 33.35976 | 118.79878 | 32206 ft | 432 kts | 316° |
| 2026-04-28 04:30 | 33.40822 | 118.75678 | 32208 ft | 432 kts | 317° |
| 2026-04-28 04:31 | 33.45685 | 118.71457 | 32204 ft | 430 kts | 316° |
| 2026-04-28 04:31 | 33.50547 | 118.67240 | 32214 ft | 431 kts | 316° |
| 2026-04-28 04:32 | 33.55419 | 118.63017 | 32209 ft | 431 kts | 316° |
| 2026-04-28 04:32 | 33.60257 | 118.58818 | 32215 ft | 427 kts | 316° |
| 2026-04-28 04:33 | 33.65065 | 118.54636 | 32218 ft | 430 kts | 316° |
| 2026-04-28 04:33 | 33.69914 | 118.50414 | 32212 ft | 427 kts | 316° |
| 2026-04-28 04:34 | 33.74738 | 118.46207 | 32218 ft | 428 kts | 316° |
| 2026-04-28 04:34 | 33.79537 | 118.42017 | 32221 ft | 427 kts | 316° |
| 2026-04-28 04:35 | 33.84357 | 118.37801 | 32220 ft | 428 kts | 316° |
| 2026-04-28 04:35 | 33.89157 | 118.33598 | 32239 ft | 427 kts | 316° |
| 2026-04-28 04:36 | 33.93968 | 118.29378 | 32240 ft | 426 kts | 316° |
| 2026-04-28 04:36 | 33.98747 | 118.25188 | 32241 ft | 427 kts | 316° |
| 2026-04-28 04:37 | 34.03577 | 118.20987 | 32246 ft | 427 kts | 316° |
| 2026-04-28 04:37 | 34.08358 | 118.16822 | 32242 ft | 426 kts | 316° |
| 2026-04-28 04:38 | 34.13170 | 118.12632 | 32242 ft | 425 kts | 315° |
| 2026-04-28 04:38 | 34.17977 | 118.08443 | 32237 ft | 423 kts | 316° |
| 2026-04-28 04:39 | 34.22720 | 118.04303 | 32237 ft | 424 kts | 315° |
| 2026-04-28 04:39 | 34.27672 | 118.00330 | 32235 ft | 431 kts | 324° |
| 2026-04-28 04:40 | 34.33403 | 117.97810 | 32239 ft | 445 kts | 334° |
| 2026-04-28 04:40 | 34.39433 | 117.95673 | 32234 ft | 449 kts | 334° |
| 2026-04-28 04:41 | 34.45413 | 117.93552 | 32240 ft | 444 kts | 334° |
| 2026-04-28 04:41 | 34.51353 | 117.91430 | 32240 ft | 450 kts | 333° |
| 2026-04-28 04:42 | 34.57399 | 117.89268 | 32239 ft | 448 kts | 334° |
| 2026-04-28 04:42 | 34.63371 | 117.87128 | 32236 ft | 446 kts | 333° |
| 2026-04-28 04:43 | 34.69339 | 117.84983 | 32236 ft | 448 kts | 333° |
| 2026-04-28 04:43 | 34.75336 | 117.82825 | 32240 ft | 449 kts | 333° |
| 2026-04-28 04:44 | 34.81310 | 117.80672 | 32241 ft | 449 kts | 333° |
| 2026-04-28 04:44 | 34.87277 | 117.78491 | 32245 ft | 449 kts | 333° |
| 2026-04-28 04:45 | 34.93258 | 117.76306 | 32236 ft | 446 kts | 332° |
| 2026-04-28 04:45 | 34.99195 | 117.74133 | 32245 ft | 445 kts | 332° |
| 2026-04-28 04:46 | 35.05159 | 117.71944 | 32243 ft | 451 kts | 332° |
| 2026-04-28 04:46 | 35.11190 | 117.69735 | 32236 ft | 447 kts | 332° |
| 2026-04-28 04:47 | 35.17105 | 117.67566 | 32238 ft | 446 kts | 332° |
| 2026-04-28 04:47 | 35.23054 | 117.65379 | 32230 ft | 447 kts | 332° |
| 2026-04-28 04:48 | 35.29029 | 117.63179 | 32233 ft | 448 kts | 332° |
| 2026-04-28 04:48 | 35.34987 | 117.60983 | 32230 ft | 449 kts | 332° |
| 2026-04-28 04:49 | 35.41001 | 117.58763 | 32232 ft | 451 kts | 332° |
| 2026-04-28 04:49 | 35.46972 | 117.56558 | 32234 ft | 445 kts | 332° |
| 2026-04-28 04:50 | 35.52934 | 117.54348 | 32234 ft | 448 kts | 332° |
| 2026-04-28 04:50 | 35.58944 | 117.52119 | 32233 ft | 448 kts | 332° |
| 2026-04-28 04:51 | 35.64944 | 117.49890 | 32235 ft | 448 kts | 332° |
| 2026-04-28 04:51 | 35.70897 | 117.47674 | 32241 ft | 453 kts | 332° |
| 2026-04-28 04:52 | 35.76909 | 117.45437 | 32237 ft | 449 kts | 332° |
| 2026-04-28 04:52 | 35.82859 | 117.43218 | 32231 ft | 447 kts | 332° |
| 2026-04-28 04:53 | 35.88818 | 117.40987 | 32232 ft | 449 kts | 331° |
| 2026-04-28 04:53 | 35.94804 | 117.38747 | 32226 ft | 447 kts | 331° |
| 2026-04-28 04:54 | 36.00766 | 117.36512 | 32231 ft | 449 kts | 331° |
| 2026-04-28 04:54 | 36.06782 | 117.34290 | 32253 ft | 447 kts | 331° |
| 2026-04-28 04:55 | 36.12705 | 117.32103 | 32255 ft | 449 kts | 330° |
| 2026-04-28 04:55 | 36.18706 | 117.29883 | 32254 ft | 446 kts | 330° |
| 2026-04-28 04:56 | 36.24615 | 117.27691 | 32258 ft | 447 kts | 330° |
| 2026-04-28 04:56 | 36.30612 | 117.25464 | 32265 ft | 446 kts | 330° |
| 2026-04-28 04:57 | 36.36538 | 117.23258 | 32269 ft | 447 kts | 330° |
| 2026-04-28 04:57 | 36.42444 | 117.20951 | 32267 ft | 438 kts | 326° |
| 2026-04-28 04:58 | 36.48056 | 117.18061 | 32274 ft | 437 kts | 324° |
| 2026-04-28 04:58 | 36.53635 | 117.15157 | 32274 ft | 434 kts | 324° |
| 2026-04-28 04:59 | 36.59199 | 117.12256 | 32273 ft | 433 kts | 324° |
| 2026-04-28 04:59 | 36.64760 | 117.09354 | 32275 ft | 434 kts | 324° |
| 2026-04-28 05:00 | 36.70304 | 117.06459 | 32271 ft | 432 kts | 324° |
| 2026-04-28 05:00 | 36.75866 | 117.03548 | 32272 ft | 434 kts | 324° |
| 2026-04-28 05:01 | 36.81395 | 117.00653 | 32275 ft | 431 kts | 324° |
| 2026-04-28 05:01 | 36.86908 | 116.97759 | 32274 ft | 433 kts | 324° |
| 2026-04-28 05:02 | 36.92481 | 116.94830 | 32278 ft | 432 kts | 324° |
| 2026-04-28 05:02 | 36.97977 | 116.91939 | 32272 ft | 429 kts | 324° |
| 2026-04-28 05:03 | 37.03449 | 116.89055 | 32272 ft | 428 kts | 324° |
| 2026-04-28 05:03 | 37.08963 | 116.86140 | 32257 ft | 431 kts | 324° |
| 2026-04-28 05:04 | 37.14455 | 116.83239 | 32262 ft | 429 kts | 324° |
| 2026-04-28 05:04 | 37.19969 | 116.80317 | 32258 ft | 430 kts | 323° |
| 2026-04-28 05:05 | 37.25744 | 116.77850 | 32262 ft | 439 kts | 330° |
| 2026-04-28 05:05 | 37.31586 | 116.75659 | 32264 ft | 441 kts | 329° |
| 2026-04-28 05:06 | 37.37478 | 116.73439 | 32265 ft | 441 kts | 330° |
| 2026-04-28 05:06 | 37.43343 | 116.71226 | 32267 ft | 438 kts | 329° |
| 2026-04-28 05:07 | 37.49157 | 116.69024 | 32273 ft | 436 kts | 329° |
| 2026-04-28 05:07 | 37.54984 | 116.66811 | 32268 ft | 435 kts | 329° |
| 2026-04-28 05:08 | 37.60813 | 116.64592 | 32275 ft | 437 kts | 329° |
| 2026-04-28 05:08 | 37.66582 | 116.62396 | 32278 ft | 435 kts | 329° |
| 2026-04-28 05:09 | 37.72353 | 116.60194 | 31906 ft | 433 kts | 329° |
| 2026-04-28 05:09 | 37.75282 | 116.59072 | 31543 ft | 435 kts | 329° |
| 2026-04-28 05:09 | 37.78185 | 116.57958 | 31133 ft | 439 kts | 329° |
| 2026-04-28 05:09 | 37.81094 | 116.56844 | 30821 ft | 440 kts | 329° |
| 2026-04-28 05:10 | 37.84035 | 116.55720 | 30682 ft | 437 kts | 329° |
| 2026-04-28 05:10 | 37.86939 | 116.54610 | 30570 ft | 434 kts | 329° |
| 2026-04-28 05:10 | 37.89827 | 116.53503 | 30399 ft | 433 kts | 329° |
| 2026-04-28 05:10 | 37.92674 | 116.52411 | 30225 ft | 432 kts | 328° |
| 2026-04-28 05:11 | 37.95518 | 116.51259 | 29944 ft | 426 kts | 325° |
| 2026-04-28 05:11 | 37.98176 | 116.49702 | 29543 ft | 415 kts | 317° |
| 2026-04-28 05:11 | 38.00576 | 116.47738 | 29273 ft | 405 kts | 311° |
| 2026-04-28 05:12 | 38.05076 | 116.43610 | 29240 ft | 395 kts | 311° |
| 2026-04-28 05:12 | 38.09484 | 116.39554 | 29084 ft | 389 kts | 311° |
| 2026-04-28 05:12 | 38.11694 | 116.37521 | 28944 ft | 389 kts | 311° |
| 2026-04-28 05:13 | 38.13869 | 116.35516 | 28725 ft | 390 kts | 311° |
| 2026-04-28 05:13 | 38.18270 | 116.31469 | 28640 ft | 385 kts | 311° |
| 2026-04-28 05:14 | 38.23026 | 116.28128 | 28617 ft | 403 kts | 324° |
| 2026-04-28 05:14 | 38.25762 | 116.27069 | 28584 ft | 416 kts | 332° |
| 2026-04-28 05:14 | 38.28659 | 116.26517 | 28565 ft | 430 kts | 341° |
| 2026-04-28 05:14 | 38.31737 | 116.26509 | 28379 ft | 449 kts | 350° |
| 2026-04-28 05:15 | 38.34911 | 116.27140 | 28244 ft | 468 kts | 360° |
| 2026-04-28 05:15 | 38.38022 | 116.28245 | 28037 ft | 466 kts | 2° |
| 2026-04-28 05:15 | 38.41072 | 116.29379 | 27521 ft | 463 kts | 2° |
| 2026-04-28 05:15 | 38.44137 | 116.30502 | 26960 ft | 462 kts | 2° |
| 2026-04-28 05:16 | 38.47234 | 116.31620 | 26389 ft | 460 kts | 2° |
| 2026-04-28 05:16 | 38.50320 | 116.32720 | 25820 ft | 457 kts | 2° |
| 2026-04-28 05:16 | 38.53409 | 116.33813 | 25255 ft | 455 kts | 2° |
| 2026-04-28 05:17 | 38.59419 | 116.35928 | 24172 ft | 440 kts | 3° |
| 2026-04-28 05:17 | 38.62360 | 116.36955 | 23596 ft | 437 kts | 3° |
| 2026-04-28 05:17 | 38.65326 | 116.37987 | 23026 ft | 433 kts | 4° |
| 2026-04-28 05:17 | 38.68230 | 116.38856 | 22468 ft | 425 kts | 1° |
| 2026-04-28 05:18 | 38.71104 | 116.39650 | 21924 ft | 420 kts | 1° |
| 2026-04-28 05:18 | 38.73956 | 116.40440 | 21388 ft | 416 kts | 2° |
| 2026-04-28 05:18 | 38.76784 | 116.41228 | 20833 ft | 412 kts | 3° |
| 2026-04-28 05:18 | 38.79560 | 116.42005 | 20301 ft | 408 kts | 3° |
| 2026-04-28 05:19 | 38.82328 | 116.42783 | 19758 ft | 404 kts | 4° |
| 2026-04-28 05:19 | 38.85045 | 116.43549 | 19225 ft | 399 kts | 5° |
| 2026-04-28 05:19 | 38.87749 | 116.44312 | 18689 ft | 395 kts | 5° |
| 2026-04-28 05:19 | 38.90421 | 116.45068 | 18143 ft | 391 kts | 5° |
| 2026-04-28 05:20 | 38.93065 | 116.45818 | 17613 ft | 386 kts | 6° |
| 2026-04-28 05:20 | 38.95668 | 116.46556 | 17092 ft | 381 kts | 6° |
| 2026-04-28 05:20 | 38.98242 | 116.47287 | 16577 ft | 376 kts | 7° |
| 2026-04-28 05:20 | 39.00795 | 116.48013 | 16065 ft | 372 kts | 7° |
| 2026-04-28 05:21 | 39.03321 | 116.48731 | 15553 ft | 367 kts | 8° |
| 2026-04-28 05:21 | 39.05798 | 116.49436 | 15049 ft | 363 kts | 9° |
| 2026-04-28 05:21 | 39.08267 | 116.50140 | 14469 ft | 361 kts | 9° |
| 2026-04-28 05:21 | 39.10727 | 116.50740 | 13888 ft | 353 kts | 2° |
| 2026-04-28 05:22 | 39.13148 | 116.50660 | 13447 ft | 341 kts | 352° |
| 2026-04-28 05:22 | 39.15470 | 116.50336 | 13124 ft | 329 kts | 351° |
| 2026-04-28 05:22 | 39.17733 | 116.49992 | 12780 ft | 319 kts | 351° |
| 2026-04-28 05:22 | 39.19919 | 116.49654 | 12438 ft | 309 kts | 352° |
| 2026-04-28 05:23 | 39.22029 | 116.49326 | 12105 ft | 301 kts | 352° |
| 2026-04-28 05:23 | 39.24077 | 116.49007 | 11781 ft | 293 kts | 352° |
| 2026-04-28 05:23 | 39.26093 | 116.48694 | 11467 ft | 285 kts | 352° |
| 2026-04-28 05:23 | 39.28051 | 116.48389 | 11169 ft | 278 kts | 352° |
| 2026-04-28 05:24 | 39.29941 | 116.48094 | 10865 ft | 271 kts | 352° |
| 2026-04-28 05:24 | 39.31787 | 116.47807 | 10577 ft | 264 kts | 352° |
| 2026-04-28 05:24 | 39.33615 | 116.47521 | 10305 ft | 258 kts | 352° |
| 2026-04-28 05:24 | 39.35391 | 116.47244 | 10041 ft | 257 kts | 352° |
| 2026-04-28 05:25 | 39.37155 | 116.46969 | 9725 ft | 256 kts | 352° |
| 2026-04-28 05:25 | 39.38942 | 116.46690 | 9410 ft | 254 kts | 352° |
| 2026-04-28 05:25 | 39.40684 | 116.46418 | 9100 ft | 252 kts | 352° |
| 2026-04-28 05:25 | 39.42424 | 116.46146 | 8801 ft | 250 kts | 352° |
| 2026-04-28 05:26 | 39.44175 | 116.45872 | 8508 ft | 251 kts | 353° |
| 2026-04-28 05:26 | 39.45914 | 116.45600 | 8206 ft | 250 kts | 352° |
| 2026-04-28 05:26 | 39.47666 | 116.45676 | 7894 ft | 251 kts | 13° |
| 2026-04-28 05:26 | 39.49234 | 116.46652 | 7690 ft | 248 kts | 30° |
| 2026-04-28 05:27 | 39.50664 | 116.47942 | 7591 ft | 253 kts | 33° |
| 2026-04-28 05:27 | 39.52087 | 116.49288 | 7456 ft | 253 kts | 33° |
| 2026-04-28 05:27 | 39.53518 | 116.50652 | 7312 ft | 253 kts | 33° |
| 2026-04-28 05:27 | 39.54968 | 116.52035 | 7167 ft | 252 kts | 33° |
| 2026-04-28 05:28 | 39.56367 | 116.53369 | 7021 ft | 251 kts | 34° |
| 2026-04-28 05:28 | 39.57790 | 116.54727 | 6870 ft | 252 kts | 34° |
| 2026-04-28 05:28 | 39.59203 | 116.56075 | 6730 ft | 259 kts | 33° |
| 2026-04-28 05:28 | 39.60667 | 116.57471 | 6574 ft | 260 kts | 34° |
| 2026-04-28 05:29 | 39.62130 | 116.58871 | 6420 ft | 260 kts | 33° |
| 2026-04-28 05:29 | 39.63587 | 116.60264 | 6274 ft | 260 kts | 33° |
| 2026-04-28 05:29 | 39.65038 | 116.61645 | 6118 ft | 259 kts | 32° |
| 2026-04-28 05:29 | 39.66701 | 116.62504 | 5944 ft | 257 kts | 5° |
| 2026-04-28 05:30 | 39.68515 | 116.62581 | 5820 ft | 256 kts | 359° |
| 2026-04-28 05:30 | 39.70328 | 116.62540 | 5701 ft | 254 kts | 358° |
| 2026-04-28 05:30 | 39.72113 | 116.62454 | 5591 ft | 255 kts | 356° |
| 2026-04-28 05:30 | 39.73876 | 116.62327 | 5474 ft | 254 kts | 355° |
| 2026-04-28 05:31 | 39.75679 | 116.62161 | 5356 ft | 254 kts | 355° |
| 2026-04-28 05:31 | 39.77406 | 116.61972 | 5249 ft | 253 kts | 354° |
| 2026-04-28 05:31 | 39.79186 | 116.61755 | 5140 ft | 254 kts | 354° |
| 2026-04-28 05:31 | 39.80925 | 116.61525 | 5027 ft | 245 kts | 353° |
| 2026-04-28 05:32 | 39.82596 | 116.61294 | 4871 ft | 238 kts | 353° |
| 2026-04-28 05:32 | 39.84244 | 116.61052 | 4558 ft | 238 kts | 353° |
| 2026-04-28 05:32 | 39.85885 | 116.60799 | 4247 ft | 237 kts | 353° |
| 2026-04-28 05:32 | 39.87533 | 116.60536 | 3930 ft | 237 kts | 352° |
| 2026-04-28 05:33 | 39.89170 | 116.60273 | 3620 ft | 237 kts | 352° |
| 2026-04-28 05:33 | 39.90799 | 116.60010 | 3283 ft | 232 kts | 352° |
| 2026-04-28 05:33 | 39.92435 | 116.59747 | 2982 ft | 233 kts | 352° |
| 2026-04-28 05:33 | 39.94010 | 116.59499 | 2685 ft | 215 kts | 352° |
| 2026-04-28 05:34 | 39.95419 | 116.59277 | 2418 ft | 189 kts | 352° |
| 2026-04-28 05:34 | 39.96647 | 116.59084 | 2199 ft | 163 kts | 352° |
| 2026-04-28 05:34 | 39.97697 | 116.58921 | 2023 ft | 147 kts | 352° |
| 2026-04-28 05:34 | 39.98692 | 116.58767 | 1821 ft | 139 kts | 352° |
| 2026-04-28 05:35 | 39.99649 | 116.58618 | 1639 ft | 138 kts | 351° |
| 2026-04-28 05:35 | 40.00626 | 116.58466 | 1442 ft | 138 kts | 351° |
| 2026-04-28 05:35 | 40.01595 | 116.58317 | 1251 ft | 139 kts | 351° |
| 2026-04-28 05:35 | 40.02558 | 116.58164 | 1058 ft | 140 kts | 350° |
| 2026-04-28 05:36 | 40.03534 | 116.58019 | 884 ft | 138 kts | 349° |
| 2026-04-28 05:36 | 40.04500 | 116.57845 | 696 ft | 138 kts | 351° |
| 2026-04-28 05:36 | 40.05455 | 116.57727 | 486 ft | 139 kts | 349° |
| 2026-04-28 05:36 | 40.06443 | 116.57571 | 323 ft | 144 kts | 349° |
| 2026-04-28 05:37 | 40.07421 | 116.57417 | 162 ft | 142 kts | 348° |
| 2026-04-28 05:37 | 40.08310 | 116.57259 | 130 ft | 109 kts | 356° |
| 2026-04-28 05:37 | 40.08578 | 116.57219 | 130 ft | 92 kts | 353° |